KSPG

Details ICAO KSPG (SPG)
Name Albert Whitted
Region United States
Timezone America/New_York (UTC-5.0)
Plans Departing 23
Arriving 12
Stats Elevation 7 ft / 2 m (AMSL)
Location 27.765051° -82.626745°
Runways 2
Magnetic Variation 5.466° W
Sunrise 2017-12-15 12:15:21 UTC / 2017-12-15 07:15:21 Local
Sunset 2017-12-15 22:38:59 UTC / 2017-12-15 17:38:59 Local
Advertisement - Login to hide

Runways

ID Width Length Bearing (true) Bearing (mag) Surface Threshold Offset Overrun Length
06 75 ft / 23 m 3,676 ft / 1,120 m 61.97° 67.44° Asphalt 558 ft / 170 m 0 ft / 0 m
18 150 ft / 46 m 2,875 ft / 876 m 179.64° 185.11° Asphalt 0 ft / 0 m 0 ft / 0 m
24 75 ft / 23 m 3,676 ft / 1,120 m 241.98° 247.45° Asphalt 263 ft / 80 m 0 ft / 0 m
36 150 ft / 46 m 2,875 ft / 876 m 359.64° 5.11° Asphalt 0 ft / 0 m 0 ft / 0 m

Map

Weather


0- 5 10 15 20 25 30 35+ Temperature / ° C

Clouds and Precipitation
Forecast for 2017-12-16 00:00 UTC. Updated 44 minutes ago

Ground ~20,000 ft ~40,000 ft Winds

METAR

KSPG 152353Z 00000KT 10SM CLR 21/16 A3010 RMK AO2 SLP192 T02060156 10228 20200 53016

TAF

Not found

Frequencies

Recorded 118.87 MHz ASOS
Unicom 122.95 MHz UNICOM
Tower 127.40 MHz TWR
Approach 125.30 MHz TAMPA APP/DEP
Unicom 127.40 MHz CTAF
Ground 121.80 MHz GND
Approach 119.65 MHz TAMPA APP/DEP
Warning: Do not use this data for real-world aviation or navigation. No guarantee of current accuracy is given.